sensor_id;sensor_type;location;lat;lon;timestamp;P1;durP1;ratioP1;P2;durP2;ratioP2
10641;SDS011;5369;49.586;8.646;2024-02-23T00:00:54;2.60;;;1.03;;
10641;SDS011;5369;49.586;8.646;2024-02-23T00:03:20;3.63;;;1.73;;
10641;SDS011;5369;49.586;8.646;2024-02-23T00:05:47;3.70;;;1.00;;
10641;SDS011;5369;49.586;8.646;2024-02-23T00:08:13;2.40;;;1.10;;
10641;SDS011;5369;49.586;8.646;2024-02-23T00:10:39;2.73;;;0.90;;
10641;SDS011;5369;49.586;8.646;2024-02-23T00:13:05;2.00;;;0.93;;
10641;SDS011;5369;49.586;8.646;2024-02-23T00:15:31;1.77;;;0.70;;
10641;SDS011;5369;49.586;8.646;2024-02-23T00:17:58;2.57;;;0.77;;
10641;SDS011;5369;49.586;8.646;2024-02-23T00:20:24;1.77;;;0.90;;
10641;SDS011;5369;49.586;8.646;2024-02-23T00:22:50;4.17;;;1.20;;
10641;SDS011;5369;49.586;8.646;2024-02-23T00:25:16;1.53;;;0.70;;
10641;SDS011;5369;49.586;8.646;2024-02-23T00:27:43;1.50;;;0.90;;
10641;SDS011;5369;49.586;8.646;2024-02-23T00:30:09;3.13;;;0.90;;
10641;SDS011;5369;49.586;8.646;2024-02-23T00:32:36;1.23;;;0.77;;
10641;SDS011;5369;49.586;8.646;2024-02-23T00:35:02;1.67;;;0.90;;
10641;SDS011;5369;49.586;8.646;2024-02-23T00:37:28;1.40;;;0.83;;
10641;SDS011;5369;49.586;8.646;2024-02-23T00:40:01;1.23;;;0.73;;
10641;SDS011;5369;49.586;8.646;2024-02-23T00:42:29;3.07;;;0.87;;
10641;SDS011;5369;49.586;8.646;2024-02-23T00:44:55;4.00;;;0.90;;
10641;SDS011;5369;49.586;8.646;2024-02-23T00:47:21;1.43;;;0.90;;
10641;SDS011;5369;49.586;8.646;2024-02-23T00:49:47;2.40;;;0.93;;
10641;SDS011;5369;49.586;8.646;2024-02-23T00:52:14;2.23;;;1.00;;
10641;SDS011;5369;49.586;8.646;2024-02-23T00:54:40;1.83;;;0.90;;
10641;SDS011;5369;49.586;8.646;2024-02-23T00:57:06;1.00;;;0.70;;
10641;SDS011;5369;49.586;8.646;2024-02-23T00:59:33;2.60;;;0.87;;
10641;SDS011;5369;49.586;8.646;2024-02-23T01:01:59;2.47;;;1.07;;
10641;SDS011;5369;49.586;8.646;2024-02-23T01:04:25;2.47;;;0.87;;
10641;SDS011;5369;49.586;8.646;2024-02-23T01:06:52;2.23;;;0.83;;
10641;SDS011;5369;49.586;8.646;2024-02-23T01:09:18;1.80;;;0.80;;
10641;SDS011;5369;49.586;8.646;2024-02-23T01:11:48;2.93;;;1.00;;
10641;SDS011;5369;49.586;8.646;2024-02-23T01:14:15;1.63;;;0.80;;
10641;SDS011;5369;49.586;8.646;2024-02-23T01:16:41;2.40;;;0.70;;
10641;SDS011;5369;49.586;8.646;2024-02-23T01:19:07;1.37;;;0.70;;
10641;SDS011;5369;49.586;8.646;2024-02-23T01:21:34;3.60;;;0.97;;
10641;SDS011;5369;49.586;8.646;2024-02-23T01:24:00;2.17;;;0.90;;
10641;SDS011;5369;49.586;8.646;2024-02-23T01:26:26;1.90;;;0.97;;
10641;SDS011;5369;49.586;8.646;2024-02-23T01:28:53;3.10;;;0.90;;
10641;SDS011;5369;49.586;8.646;2024-02-23T01:31:19;2.33;;;0.97;;
10641;SDS011;5369;49.586;8.646;2024-02-23T01:33:45;3.07;;;1.00;;
10641;SDS011;5369;49.586;8.646;2024-02-23T01:36:12;3.07;;;0.90;;
10641;SDS011;5369;49.586;8.646;2024-02-23T01:38:38;3.00;;;1.00;;
10641;SDS011;5369;49.586;8.646;2024-02-23T01:41:04;2.67;;;1.00;;
10641;SDS011;5369;49.586;8.646;2024-02-23T01:43:31;4.40;;;1.00;;
10641;SDS011;5369;49.586;8.646;2024-02-23T01:45:57;3.40;;;1.07;;
10641;SDS011;5369;49.586;8.646;2024-02-23T01:48:24;7.10;;;1.00;;
10641;SDS011;5369;49.586;8.646;2024-02-23T01:50:50;2.83;;;0.87;;
10641;SDS011;5369;49.586;8.646;2024-02-23T01:53:16;2.97;;;0.80;;
10641;SDS011;5369;49.586;8.646;2024-02-23T01:55:45;1.07;;;0.70;;
10641;SDS011;5369;49.586;8.646;2024-02-23T01:58:12;0.57;;;0.53;;
10641;SDS011;5369;49.586;8.646;2024-02-23T02:00:38;2.77;;;0.70;;
10641;SDS011;5369;49.586;8.646;2024-02-23T02:03:04;3.37;;;0.90;;
10641;SDS011;5369;49.586;8.646;2024-02-23T02:05:30;0.93;;;0.60;;
10641;SDS011;5369;49.586;8.646;2024-02-23T02:07:56;1.17;;;0.67;;
10641;SDS011;5369;49.586;8.646;2024-02-23T02:10:26;3.23;;;0.60;;
10641;SDS011;5369;49.586;8.646;2024-02-23T02:12:52;1.73;;;0.70;;
10641;SDS011;5369;49.586;8.646;2024-02-23T02:15:19;2.33;;;0.93;;
10641;SDS011;5369;49.586;8.646;2024-02-23T02:17:47;0.80;;;0.60;;
10641;SDS011;5369;49.586;8.646;2024-02-23T02:20:13;2.30;;;1.00;;
10641;SDS011;5369;49.586;8.646;2024-02-23T02:22:39;3.53;;;1.00;;
10641;SDS011;5369;49.586;8.646;2024-02-23T02:25:06;2.63;;;0.83;;
10641;SDS011;5369;49.586;8.646;2024-02-23T02:27:33;1.07;;;0.60;;
10641;SDS011;5369;49.586;8.646;2024-02-23T02:29:59;0.83;;;0.70;;
10641;SDS011;5369;49.586;8.646;2024-02-23T02:32:26;2.13;;;0.87;;
10641;SDS011;5369;49.586;8.646;2024-02-23T02:34:52;4.23;;;1.13;;
10641;SDS011;5369;49.586;8.646;2024-02-23T02:37:18;2.73;;;1.23;;
10641;SDS011;5369;49.586;8.646;2024-02-23T02:39:44;3.07;;;1.23;;
10641;SDS011;5369;49.586;8.646;2024-02-23T02:42:10;4.83;;;2.10;;
10641;SDS011;5369;49.586;8.646;2024-02-23T02:44:36;3.97;;;1.47;;
10641;SDS011;5369;49.586;8.646;2024-02-23T02:47:03;1.57;;;0.90;;
10641;SDS011;5369;49.586;8.646;2024-02-23T02:49:30;3.00;;;1.00;;
10641;SDS011;5369;49.586;8.646;2024-02-23T02:51:56;6.40;;;2.20;;
10641;SDS011;5369;49.586;8.646;2024-02-23T02:54:22;6.10;;;2.50;;
10641;SDS011;5369;49.586;8.646;2024-02-23T02:56:48;5.50;;;2.30;;
10641;SDS011;5369;49.586;8.646;2024-02-23T02:59:15;8.03;;;2.97;;
10641;SDS011;5369;49.586;8.646;2024-02-23T03:01:43;5.87;;;2.80;;
10641;SDS011;5369;49.586;8.646;2024-02-23T03:04:10;2.43;;;1.07;;
10641;SDS011;5369;49.586;8.646;2024-02-23T03:06:37;2.90;;;0.90;;
10641;SDS011;5369;49.586;8.646;2024-02-23T03:09:03;1.90;;;0.57;;
10641;SDS011;5369;49.586;8.646;2024-02-23T03:11:30;1.60;;;0.80;;
10641;SDS011;5369;49.586;8.646;2024-02-23T03:13:56;1.03;;;0.60;;
10641;SDS011;5369;49.586;8.646;2024-02-23T03:16:22;2.30;;;1.10;;
10641;SDS011;5369;49.586;8.646;2024-02-23T03:18:51;2.77;;;0.90;;
10641;SDS011;5369;49.586;8.646;2024-02-23T03:21:19;2.63;;;0.90;;
10641;SDS011;5369;49.586;8.646;2024-02-23T03:23:45;1.73;;;0.80;;
10641;SDS011;5369;49.586;8.646;2024-02-23T03:26:11;2.47;;;0.80;;
10641;SDS011;5369;49.586;8.646;2024-02-23T03:28:37;2.27;;;0.60;;
10641;SDS011;5369;49.586;8.646;2024-02-23T03:31:04;2.20;;;0.93;;
10641;SDS011;5369;49.586;8.646;2024-02-23T03:33:30;2.93;;;1.00;;
10641;SDS011;5369;49.586;8.646;2024-02-23T03:35:57;3.03;;;1.13;;
10641;SDS011;5369;49.586;8.646;2024-02-23T03:38:23;2.70;;;0.80;;
10641;SDS011;5369;49.586;8.646;2024-02-23T03:40:49;3.93;;;1.40;;
10641;SDS011;5369;49.586;8.646;2024-02-23T03:43:15;7.40;;;3.03;;
10641;SDS011;5369;49.586;8.646;2024-02-23T03:45:42;3.00;;;1.30;;
10641;SDS011;5369;49.586;8.646;2024-02-23T03:48:08;3.13;;;1.20;;
10641;SDS011;5369;49.586;8.646;2024-02-23T03:50:34;2.90;;;0.90;;
10641;SDS011;5369;49.586;8.646;2024-02-23T03:53:00;3.63;;;1.00;;
10641;SDS011;5369;49.586;8.646;2024-02-23T03:55:26;2.23;;;1.30;;
10641;SDS011;5369;49.586;8.646;2024-02-23T03:57:53;2.67;;;0.93;;
10641;SDS011;5369;49.586;8.646;2024-02-23T04:00:19;1.40;;;0.80;;
10641;SDS011;5369;49.586;8.646;2024-02-23T04:02:47;7.63;;;1.83;;
10641;SDS011;5369;49.586;8.646;2024-02-23T04:05:13;3.10;;;1.10;;
10641;SDS011;5369;49.586;8.646;2024-02-23T04:07:39;2.90;;;1.10;;
10641;SDS011;5369;49.586;8.646;2024-02-23T04:10:05;2.37;;;1.10;;
10641;SDS011;5369;49.586;8.646;2024-02-23T04:12:32;4.37;;;1.50;;
10641;SDS011;5369;49.586;8.646;2024-02-23T04:14:58;5.40;;;1.40;;
10641;SDS011;5369;49.586;8.646;2024-02-23T04:17:24;2.83;;;0.97;;
10641;SDS011;5369;49.586;8.646;2024-02-23T04:19:51;3.70;;;0.90;;
10641;SDS011;5369;49.586;8.646;2024-02-23T04:22:17;2.60;;;0.97;;
10641;SDS011;5369;49.586;8.646;2024-02-23T04:24:43;1.60;;;0.80;;
10641;SDS011;5369;49.586;8.646;2024-02-23T04:27:09;0.93;;;0.80;;
10641;SDS011;5369;49.586;8.646;2024-02-23T04:29:35;2.67;;;0.90;;
10641;SDS011;5369;49.586;8.646;2024-02-23T04:32:01;4.00;;;1.50;;
10641;SDS011;5369;49.586;8.646;2024-02-23T04:34:28;1.97;;;1.00;;
10641;SDS011;5369;49.586;8.646;2024-02-23T04:36:54;2.63;;;0.90;;
10641;SDS011;5369;49.586;8.646;2024-02-23T04:39:21;2.50;;;0.83;;
10641;SDS011;5369;49.586;8.646;2024-02-23T04:41:47;4.23;;;1.10;;
10641;SDS011;5369;49.586;8.646;2024-02-23T04:44:14;1.93;;;0.87;;
10641;SDS011;5369;49.586;8.646;2024-02-23T04:46:40;1.97;;;1.10;;
10641;SDS011;5369;49.586;8.646;2024-02-23T04:49:06;1.93;;;0.93;;
10641;SDS011;5369;49.586;8.646;2024-02-23T04:51:33;4.80;;;1.37;;
10641;SDS011;5369;49.586;8.646;2024-02-23T04:53:59;3.53;;;1.20;;
10641;SDS011;5369;49.586;8.646;2024-02-23T04:56:25;2.87;;;1.00;;
10641;SDS011;5369;49.586;8.646;2024-02-23T04:58:51;2.83;;;1.00;;
10641;SDS011;5369;49.586;8.646;2024-02-23T05:01:17;2.87;;;0.90;;
10641;SDS011;5369;49.586;8.646;2024-02-23T05:03:44;5.30;;;1.10;;
10641;SDS011;5369;49.586;8.646;2024-02-23T05:06:10;3.20;;;1.00;;
10641;SDS011;5369;49.586;8.646;2024-02-23T05:08:38;2.37;;;0.80;;
10641;SDS011;5369;49.586;8.646;2024-02-23T05:11:04;2.87;;;1.10;;
10641;SDS011;5369;49.586;8.646;2024-02-23T05:13:30;4.93;;;1.10;;
10641;SDS011;5369;49.586;8.646;2024-02-23T05:15:56;3.33;;;1.20;;
10641;SDS011;5369;49.586;8.646;2024-02-23T05:18:23;4.73;;;1.03;;
10641;SDS011;5369;49.586;8.646;2024-02-23T05:20:50;3.20;;;0.83;;
10641;SDS011;5369;49.586;8.646;2024-02-23T05:23:16;3.23;;;1.30;;
10641;SDS011;5369;49.586;8.646;2024-02-23T05:25:43;1.63;;;0.93;;
10641;SDS011;5369;49.586;8.646;2024-02-23T05:28:09;2.83;;;0.97;;
10641;SDS011;5369;49.586;8.646;2024-02-23T05:30:35;2.83;;;1.00;;
10641;SDS011;5369;49.586;8.646;2024-02-23T05:33:02;5.07;;;1.30;;
10641;SDS011;5369;49.586;8.646;2024-02-23T05:35:29;4.00;;;1.10;;
10641;SDS011;5369;49.586;8.646;2024-02-23T05:37:55;4.90;;;1.07;;
10641;SDS011;5369;49.586;8.646;2024-02-23T05:40:21;4.93;;;1.30;;
10641;SDS011;5369;49.586;8.646;2024-02-23T05:42:47;3.97;;;1.30;;
10641;SDS011;5369;49.586;8.646;2024-02-23T05:45:13;2.90;;;1.20;;
10641;SDS011;5369;49.586;8.646;2024-02-23T05:47:40;2.97;;;1.40;;
10641;SDS011;5369;49.586;8.646;2024-02-23T05:50:10;3.23;;;1.30;;
10641;SDS011;5369;49.586;8.646;2024-02-23T05:52:36;3.73;;;1.20;;
10641;SDS011;5369;49.586;8.646;2024-02-23T05:55:03;3.80;;;1.20;;
10641;SDS011;5369;49.586;8.646;2024-02-23T05:57:29;3.07;;;1.10;;
10641;SDS011;5369;49.586;8.646;2024-02-23T05:59:55;3.50;;;1.13;;
10641;SDS011;5369;49.586;8.646;2024-02-23T06:02:22;3.83;;;1.20;;
10641;SDS011;5369;49.586;8.646;2024-02-23T06:04:48;4.80;;;1.40;;
10641;SDS011;5369;49.586;8.646;2024-02-23T06:07:14;2.93;;;1.10;;
10641;SDS011;5369;49.586;8.646;2024-02-23T06:09:43;3.37;;;1.10;;
10641;SDS011;5369;49.586;8.646;2024-02-23T06:12:09;1.53;;;1.00;;
10641;SDS011;5369;49.586;8.646;2024-02-23T06:14:36;2.77;;;1.30;;
10641;SDS011;5369;49.586;8.646;2024-02-23T06:17:02;3.70;;;1.13;;
10641;SDS011;5369;49.586;8.646;2024-02-23T06:19:29;4.30;;;1.07;;
10641;SDS011;5369;49.586;8.646;2024-02-23T06:21:55;4.70;;;1.10;;
10641;SDS011;5369;49.586;8.646;2024-02-23T06:24:21;4.20;;;1.07;;
10641;SDS011;5369;49.586;8.646;2024-02-23T06:26:47;4.77;;;1.30;;
10641;SDS011;5369;49.586;8.646;2024-02-23T06:29:14;2.87;;;1.03;;
10641;SDS011;5369;49.586;8.646;2024-02-23T06:31:40;2.83;;;1.00;;
10641;SDS011;5369;49.586;8.646;2024-02-23T06:34:07;2.80;;;1.00;;
10641;SDS011;5369;49.586;8.646;2024-02-23T06:36:33;3.27;;;1.10;;
10641;SDS011;5369;49.586;8.646;2024-02-23T06:38:59;4.17;;;1.10;;
10641;SDS011;5369;49.586;8.646;2024-02-23T06:41:26;2.60;;;1.10;;
10641;SDS011;5369;49.586;8.646;2024-02-23T06:43:52;1.93;;;1.00;;
10641;SDS011;5369;49.586;8.646;2024-02-23T06:46:19;5.23;;;1.27;;
10641;SDS011;5369;49.586;8.646;2024-02-23T06:48:46;2.77;;;1.03;;
10641;SDS011;5369;49.586;8.646;2024-02-23T06:51:12;3.97;;;1.20;;
10641;SDS011;5369;49.586;8.646;2024-02-23T06:53:39;3.90;;;1.40;;
10641;SDS011;5369;49.586;8.646;2024-02-23T06:56:05;2.87;;;1.20;;
10641;SDS011;5369;49.586;8.646;2024-02-23T06:58:31;5.10;;;1.20;;
10641;SDS011;5369;49.586;8.646;2024-02-23T07:00:58;5.33;;;1.50;;
10641;SDS011;5369;49.586;8.646;2024-02-23T07:03:25;3.43;;;1.30;;
10641;SDS011;5369;49.586;8.646;2024-02-23T07:05:51;1.97;;;1.10;;
10641;SDS011;5369;49.586;8.646;2024-02-23T07:08:18;3.67;;;1.13;;
10641;SDS011;5369;49.586;8.646;2024-02-23T07:10:44;3.80;;;1.27;;
10641;SDS011;5369;49.586;8.646;2024-02-23T07:13:10;7.03;;;1.60;;
10641;SDS011;5369;49.586;8.646;2024-02-23T07:15:36;2.73;;;1.10;;
10641;SDS011;5369;49.586;8.646;2024-02-23T07:18:02;2.30;;;1.10;;
10641;SDS011;5369;49.586;8.646;2024-02-23T07:20:29;4.27;;;1.30;;
10641;SDS011;5369;49.586;8.646;2024-02-23T07:22:55;2.83;;;1.20;;
10641;SDS011;5369;49.586;8.646;2024-02-23T07:25:21;3.57;;;1.30;;
10641;SDS011;5369;49.586;8.646;2024-02-23T07:27:48;3.80;;;1.23;;
10641;SDS011;5369;49.586;8.646;2024-02-23T07:30:14;4.70;;;1.20;;
10641;SDS011;5369;49.586;8.646;2024-02-23T07:32:44;2.37;;;1.10;;
10641;SDS011;5369;49.586;8.646;2024-02-23T07:35:11;3.57;;;1.13;;
10641;SDS011;5369;49.586;8.646;2024-02-23T07:37:38;2.83;;;1.13;;
10641;SDS011;5369;49.586;8.646;2024-02-23T07:40:04;1.53;;;0.97;;
10641;SDS011;5369;49.586;8.646;2024-02-23T07:42:31;5.93;;;1.30;;
10641;SDS011;5369;49.586;8.646;2024-02-23T07:44:57;4.10;;;1.17;;
10641;SDS011;5369;49.586;8.646;2024-02-23T07:47:24;5.23;;;1.13;;
10641;SDS011;5369;49.586;8.646;2024-02-23T07:49:52;5.70;;;1.20;;
10641;SDS011;5369;49.586;8.646;2024-02-23T07:52:18;3.77;;;1.30;;
10641;SDS011;5369;49.586;8.646;2024-02-23T07:54:45;4.53;;;1.10;;
10641;SDS011;5369;49.586;8.646;2024-02-23T07:57:11;3.80;;;1.20;;
10641;SDS011;5369;49.586;8.646;2024-02-23T07:59:38;5.30;;;1.53;;
10641;SDS011;5369;49.586;8.646;2024-02-23T08:02:05;8.07;;;1.83;;
10641;SDS011;5369;49.586;8.646;2024-02-23T08:04:31;3.73;;;1.40;;
10641;SDS011;5369;49.586;8.646;2024-02-23T08:06:57;3.37;;;1.30;;
10641;SDS011;5369;49.586;8.646;2024-02-23T08:09:23;5.50;;;1.57;;
10641;SDS011;5369;49.586;8.646;2024-02-23T08:11:49;5.70;;;1.70;;
10641;SDS011;5369;49.586;8.646;2024-02-23T08:14:16;8.23;;;1.70;;
10641;SDS011;5369;49.586;8.646;2024-02-23T08:16:43;4.30;;;1.50;;
10641;SDS011;5369;49.586;8.646;2024-02-23T08:19:09;5.43;;;1.50;;
10641;SDS011;5369;49.586;8.646;2024-02-23T08:21:35;6.37;;;1.60;;
10641;SDS011;5369;49.586;8.646;2024-02-23T08:24:01;6.87;;;2.00;;
10641;SDS011;5369;49.586;8.646;2024-02-23T08:26:28;5.03;;;1.70;;
10641;SDS011;5369;49.586;8.646;2024-02-23T08:28:54;5.70;;;1.70;;
10641;SDS011;5369;49.586;8.646;2024-02-23T08:31:20;4.07;;;1.87;;
10641;SDS011;5369;49.586;8.646;2024-02-23T08:33:46;6.23;;;1.80;;
10641;SDS011;5369;49.586;8.646;2024-02-23T08:36:12;4.93;;;1.30;;
10641;SDS011;5369;49.586;8.646;2024-02-23T08:38:38;6.90;;;1.53;;
10641;SDS011;5369;49.586;8.646;2024-02-23T08:41:05;5.70;;;1.30;;
10641;SDS011;5369;49.586;8.646;2024-02-23T08:43:31;8.83;;;1.50;;
10641;SDS011;5369;49.586;8.646;2024-02-23T08:45:57;4.40;;;1.30;;
10641;SDS011;5369;49.586;8.646;2024-02-23T08:48:23;4.80;;;1.37;;
10641;SDS011;5369;49.586;8.646;2024-02-23T08:50:49;5.13;;;1.10;;
10641;SDS011;5369;49.586;8.646;2024-02-23T08:53:15;4.53;;;1.20;;
10641;SDS011;5369;49.586;8.646;2024-02-23T08:55:42;7.17;;;1.50;;
10641;SDS011;5369;49.586;8.646;2024-02-23T08:58:09;3.27;;;1.30;;
10641;SDS011;5369;49.586;8.646;2024-02-23T09:00:35;3.90;;;1.03;;
10641;SDS011;5369;49.586;8.646;2024-02-23T09:03:04;4.13;;;1.10;;
10641;SDS011;5369;49.586;8.646;2024-02-23T09:05:31;4.87;;;1.20;;
10641;SDS011;5369;49.586;8.646;2024-02-23T09:07:57;6.10;;;1.50;;
10641;SDS011;5369;49.586;8.646;2024-02-23T09:10:23;3.20;;;1.20;;
10641;SDS011;5369;49.586;8.646;2024-02-23T09:12:49;4.33;;;1.37;;
10641;SDS011;5369;49.586;8.646;2024-02-23T09:15:15;4.70;;;1.53;;
10641;SDS011;5369;49.586;8.646;2024-02-23T09:17:41;5.60;;;1.70;;
10641;SDS011;5369;49.586;8.646;2024-02-23T09:20:08;6.23;;;2.50;;
10641;SDS011;5369;49.586;8.646;2024-02-23T09:22:34;6.60;;;1.50;;
10641;SDS011;5369;49.586;8.646;2024-02-23T09:25:02;5.90;;;1.63;;
10641;SDS011;5369;49.586;8.646;2024-02-23T09:27:30;4.90;;;1.43;;
10641;SDS011;5369;49.586;8.646;2024-02-23T09:29:56;2.40;;;1.30;;
10641;SDS011;5369;49.586;8.646;2024-02-23T09:32:24;4.13;;;1.30;;
10641;SDS011;5369;49.586;8.646;2024-02-23T09:34:50;5.70;;;1.27;;
10641;SDS011;5369;49.586;8.646;2024-02-23T09:37:16;3.60;;;1.47;;
10641;SDS011;5369;49.586;8.646;2024-02-23T09:39:42;3.70;;;1.20;;
10641;SDS011;5369;49.586;8.646;2024-02-23T09:42:09;3.23;;;1.30;;
10641;SDS011;5369;49.586;8.646;2024-02-23T09:44:39;7.60;;;1.30;;
10641;SDS011;5369;49.586;8.646;2024-02-23T09:47:05;6.90;;;1.53;;
10641;SDS011;5369;49.586;8.646;2024-02-23T09:49:39;3.40;;;1.20;;
10641;SDS011;5369;49.586;8.646;2024-02-23T09:52:06;7.47;;;1.30;;
10641;SDS011;5369;49.586;8.646;2024-02-23T09:54:33;6.83;;;1.23;;
10641;SDS011;5369;49.586;8.646;2024-02-23T09:57:00;3.00;;;1.30;;
10641;SDS011;5369;49.586;8.646;2024-02-23T09:59:27;3.73;;;1.23;;
10641;SDS011;5369;49.586;8.646;2024-02-23T10:01:56;6.10;;;1.30;;
10641;SDS011;5369;49.586;8.646;2024-02-23T10:04:22;5.33;;;1.30;;
10641;SDS011;5369;49.586;8.646;2024-02-23T10:06:50;5.57;;;1.50;;
10641;SDS011;5369;49.586;8.646;2024-02-23T10:09:16;2.40;;;1.07;;
10641;SDS011;5369;49.586;8.646;2024-02-23T10:11:42;5.10;;;1.20;;
10641;SDS011;5369;49.586;8.646;2024-02-23T10:14:08;2.77;;;1.00;;
10641;SDS011;5369;49.586;8.646;2024-02-23T10:16:34;4.43;;;1.30;;
10641;SDS011;5369;49.586;8.646;2024-02-23T10:19:00;3.37;;;1.07;;
10641;SDS011;5369;49.586;8.646;2024-02-23T10:21:27;4.53;;;1.30;;
10641;SDS011;5369;49.586;8.646;2024-02-23T10:23:53;3.97;;;1.10;;
10641;SDS011;5369;49.586;8.646;2024-02-23T10:26:19;5.37;;;1.23;;
10641;SDS011;5369;49.586;8.646;2024-02-23T10:28:47;3.43;;;1.20;;
10641;SDS011;5369;49.586;8.646;2024-02-23T10:31:13;3.90;;;1.10;;
10641;SDS011;5369;49.586;8.646;2024-02-23T10:33:40;2.97;;;1.00;;
10641;SDS011;5369;49.586;8.646;2024-02-23T10:36:07;6.77;;;1.50;;
10641;SDS011;5369;49.586;8.646;2024-02-23T10:38:33;5.60;;;1.40;;
10641;SDS011;5369;49.586;8.646;2024-02-23T10:41:01;3.77;;;1.33;;
10641;SDS011;5369;49.586;8.646;2024-02-23T10:43:33;4.20;;;1.20;;
10641;SDS011;5369;49.586;8.646;2024-02-23T10:45:59;8.00;;;1.30;;
10641;SDS011;5369;49.586;8.646;2024-02-23T10:48:33;3.83;;;1.07;;
10641;SDS011;5369;49.586;8.646;2024-02-23T10:51:00;3.63;;;1.30;;
10641;SDS011;5369;49.586;8.646;2024-02-23T10:53:26;4.40;;;1.23;;
10641;SDS011;5369;49.586;8.646;2024-02-23T10:55:56;3.93;;;1.10;;
10641;SDS011;5369;49.586;8.646;2024-02-23T10:58:26;2.33;;;1.00;;
10641;SDS011;5369;49.586;8.646;2024-02-23T11:00:52;3.77;;;1.30;;
10641;SDS011;5369;49.586;8.646;2024-02-23T11:03:22;2.63;;;1.30;;
10641;SDS011;5369;49.586;8.646;2024-02-23T11:05:49;7.73;;;1.20;;
10641;SDS011;5369;49.586;8.646;2024-02-23T11:08:18;4.43;;;1.17;;
10641;SDS011;5369;49.586;8.646;2024-02-23T11:10:51;4.50;;;1.10;;
10641;SDS011;5369;49.586;8.646;2024-02-23T11:13:17;5.33;;;1.23;;
10641;SDS011;5369;49.586;8.646;2024-02-23T11:15:43;3.93;;;1.20;;
10641;SDS011;5369;49.586;8.646;2024-02-23T11:18:22;6.03;;;1.40;;
10641;SDS011;5369;49.586;8.646;2024-02-23T11:20:55;3.10;;;1.37;;
10641;SDS011;5369;49.586;8.646;2024-02-23T11:23:22;4.60;;;1.50;;
10641;SDS011;5369;49.586;8.646;2024-02-23T11:25:58;4.87;;;1.30;;
10641;SDS011;5369;49.586;8.646;2024-02-23T11:28:25;2.80;;;1.20;;
10641;SDS011;5369;49.586;8.646;2024-02-23T11:30:52;4.63;;;1.27;;
10641;SDS011;5369;49.586;8.646;2024-02-23T11:33:25;4.83;;;1.40;;
10641;SDS011;5369;49.586;8.646;2024-02-23T11:35:52;3.57;;;1.23;;
10641;SDS011;5369;49.586;8.646;2024-02-23T11:38:19;5.23;;;1.50;;
10641;SDS011;5369;49.586;8.646;2024-02-23T11:40:49;4.70;;;1.20;;
10641;SDS011;5369;49.586;8.646;2024-02-23T11:43:17;4.80;;;1.30;;
10641;SDS011;5369;49.586;8.646;2024-02-23T11:45:46;2.67;;;1.30;;
10641;SDS011;5369;49.586;8.646;2024-02-23T11:48:12;3.47;;;1.20;;
10641;SDS011;5369;49.586;8.646;2024-02-23T11:50:39;4.00;;;1.10;;
10641;SDS011;5369;49.586;8.646;2024-02-23T11:53:06;4.53;;;1.20;;
10641;SDS011;5369;49.586;8.646;2024-02-23T11:55:32;4.87;;;1.20;;
10641;SDS011;5369;49.586;8.646;2024-02-23T11:57:58;4.80;;;1.47;;
10641;SDS011;5369;49.586;8.646;2024-02-23T12:00:24;3.03;;;1.10;;
10641;SDS011;5369;49.586;8.646;2024-02-23T12:02:51;4.87;;;1.40;;
10641;SDS011;5369;49.586;8.646;2024-02-23T12:05:17;3.77;;;1.10;;
10641;SDS011;5369;49.586;8.646;2024-02-23T12:07:43;5.00;;;1.70;;
10641;SDS011;5369;49.586;8.646;2024-02-23T12:10:09;4.57;;;1.27;;
10641;SDS011;5369;49.586;8.646;2024-02-23T12:12:36;5.83;;;1.50;;
10641;SDS011;5369;49.586;8.646;2024-02-23T12:15:02;3.87;;;1.10;;
10641;SDS011;5369;49.586;8.646;2024-02-23T12:17:28;2.63;;;1.10;;
10641;SDS011;5369;49.586;8.646;2024-02-23T12:20:02;5.90;;;1.40;;
10641;SDS011;5369;49.586;8.646;2024-02-23T12:22:29;8.00;;;1.70;;
10641;SDS011;5369;49.586;8.646;2024-02-23T12:24:58;8.70;;;1.70;;
10641;SDS011;5369;49.586;8.646;2024-02-23T12:27:25;3.50;;;1.10;;
10641;SDS011;5369;49.586;8.646;2024-02-23T12:29:54;5.13;;;1.30;;
10641;SDS011;5369;49.586;8.646;2024-02-23T12:32:20;5.27;;;1.53;;
10641;SDS011;5369;49.586;8.646;2024-02-23T12:34:47;2.90;;;1.33;;
10641;SDS011;5369;49.586;8.646;2024-02-23T12:37:17;2.80;;;1.10;;
10641;SDS011;5369;49.586;8.646;2024-02-23T12:39:44;4.10;;;1.40;;
10641;SDS011;5369;49.586;8.646;2024-02-23T12:42:10;3.60;;;1.20;;
10641;SDS011;5369;49.586;8.646;2024-02-23T12:44:36;6.87;;;1.40;;
10641;SDS011;5369;49.586;8.646;2024-02-23T12:47:02;5.60;;;1.50;;
10641;SDS011;5369;49.586;8.646;2024-02-23T12:49:29;3.10;;;1.13;;
10641;SDS011;5369;49.586;8.646;2024-02-23T12:51:55;4.33;;;1.80;;
10641;SDS011;5369;49.586;8.646;2024-02-23T12:54:21;9.77;;;6.03;;
10641;SDS011;5369;49.586;8.646;2024-02-23T12:56:47;9.00;;;4.50;;
10641;SDS011;5369;49.586;8.646;2024-02-23T12:59:14;16.50;;;9.23;;
10641;SDS011;5369;49.586;8.646;2024-02-23T13:01:41;10.97;;;6.57;;
10641;SDS011;5369;49.586;8.646;2024-02-23T13:04:07;4.13;;;2.20;;
10641;SDS011;5369;49.586;8.646;2024-02-23T13:06:37;6.20;;;3.07;;
10641;SDS011;5369;49.586;8.646;2024-02-23T13:09:03;4.80;;;1.70;;
10641;SDS011;5369;49.586;8.646;2024-02-23T13:11:30;3.37;;;1.60;;
10641;SDS011;5369;49.586;8.646;2024-02-23T13:13:57;3.60;;;1.37;;
10641;SDS011;5369;49.586;8.646;2024-02-23T13:16:24;3.77;;;1.20;;
10641;SDS011;5369;49.586;8.646;2024-02-23T13:18:50;2.47;;;1.07;;
10641;SDS011;5369;49.586;8.646;2024-02-23T13:21:16;3.27;;;1.23;;
10641;SDS011;5369;49.586;8.646;2024-02-23T13:23:42;4.80;;;1.70;;
10641;SDS011;5369;49.586;8.646;2024-02-23T13:26:08;5.00;;;1.93;;
10641;SDS011;5369;49.586;8.646;2024-02-23T13:28:38;1.93;;;1.10;;
10641;SDS011;5369;49.586;8.646;2024-02-23T13:31:04;4.30;;;1.30;;
10641;SDS011;5369;49.586;8.646;2024-02-23T13:33:31;3.53;;;1.30;;
10641;SDS011;5369;49.586;8.646;2024-02-23T13:35:57;4.83;;;1.50;;
10641;SDS011;5369;49.586;8.646;2024-02-23T13:38:23;7.13;;;1.40;;
10641;SDS011;5369;49.586;8.646;2024-02-23T13:40:50;4.97;;;1.47;;
10641;SDS011;5369;49.586;8.646;2024-02-23T13:43:16;4.37;;;1.33;;
10641;SDS011;5369;49.586;8.646;2024-02-23T13:45:52;3.37;;;1.30;;
10641;SDS011;5369;49.586;8.646;2024-02-23T13:48:19;4.17;;;1.30;;
10641;SDS011;5369;49.586;8.646;2024-02-23T13:50:48;5.13;;;1.50;;
10641;SDS011;5369;49.586;8.646;2024-02-23T13:53:14;4.30;;;1.27;;
10641;SDS011;5369;49.586;8.646;2024-02-23T13:55:41;3.60;;;1.37;;
10641;SDS011;5369;49.586;8.646;2024-02-23T13:58:09;4.00;;;1.30;;
10641;SDS011;5369;49.586;8.646;2024-02-23T14:00:35;3.90;;;1.37;;
10641;SDS011;5369;49.586;8.646;2024-02-23T14:03:02;2.87;;;1.37;;
10641;SDS011;5369;49.586;8.646;2024-02-23T14:05:28;3.43;;;1.47;;
10641;SDS011;5369;49.586;8.646;2024-02-23T14:07:55;2.97;;;1.20;;
10641;SDS011;5369;49.586;8.646;2024-02-23T14:10:21;2.70;;;1.00;;
10641;SDS011;5369;49.586;8.646;2024-02-23T14:12:48;3.37;;;1.30;;
10641;SDS011;5369;49.586;8.646;2024-02-23T14:15:17;4.33;;;1.30;;
10641;SDS011;5369;49.586;8.646;2024-02-23T14:17:43;3.00;;;1.10;;
10641;SDS011;5369;49.586;8.646;2024-02-23T14:20:09;5.13;;;1.40;;
10641;SDS011;5369;49.586;8.646;2024-02-23T14:22:36;2.90;;;1.20;;
10641;SDS011;5369;49.586;8.646;2024-02-23T14:25:02;4.53;;;1.57;;
10641;SDS011;5369;49.586;8.646;2024-02-23T14:27:28;3.40;;;1.20;;
10641;SDS011;5369;49.586;8.646;2024-02-23T14:29:54;4.20;;;1.27;;
10641;SDS011;5369;49.586;8.646;2024-02-23T14:32:21;2.40;;;1.03;;
10641;SDS011;5369;49.586;8.646;2024-02-23T14:34:47;5.63;;;1.50;;
10641;SDS011;5369;49.586;8.646;2024-02-23T14:37:14;3.47;;;1.07;;
10641;SDS011;5369;49.586;8.646;2024-02-23T14:39:41;4.27;;;1.60;;
10641;SDS011;5369;49.586;8.646;2024-02-23T14:42:07;4.77;;;1.33;;
10641;SDS011;5369;49.586;8.646;2024-02-23T14:44:34;4.27;;;1.20;;
10641;SDS011;5369;49.586;8.646;2024-02-23T14:47:01;3.33;;;1.20;;
10641;SDS011;5369;49.586;8.646;2024-02-23T14:49:27;4.00;;;1.23;;
10641;SDS011;5369;49.586;8.646;2024-02-23T14:51:54;4.53;;;1.40;;
10641;SDS011;5369;49.586;8.646;2024-02-23T14:54:20;5.00;;;1.17;;
10641;SDS011;5369;49.586;8.646;2024-02-23T14:56:46;2.17;;;1.10;;